19 Nov 2018 11:07 UTC 2018323+11:07 UTC

Overview Datums Bench Marks Data Query Site Visit Daily QC Messages Attributes

171: National Park Service - Bird Island

27° 29' 4" N   97° 19' 5" W
NPSBI
United States National Park Service United States National Park Service

Station Information

National Park Service - Bird Island
National Park Service - Bird Island
more pictures
 
Station Name:National Park Service - Bird Island
DNR ID:171
Location:27° 29' 4" N, 97° 19' 5" W

Water Level Forecasts

Latest Observations

Series Metric English Marine Observed at
Water Temperature 15.5 °C 59.9 °F 59.9 °F Nov 19 04:42 CST
00h13m ago
Salinity 28.500 psu 28.500 psu 28.500 psu Nov 19 04:42 CST
00h13m ago
pH 8.25 pH 8.25 pH 8.25 pH Nov 19 04:42 CST
00h13m ago
Turbidity 5 ntu 5 ntu 5 ntu Nov 19 04:42 CST
00h13m ago
Dissolved Oxygen 7.68 mg/L 0.000479 lb/ft3 0.000479 lb/ft3 Nov 19 04:42 CST
00h13m ago

Maps

National Park Service - Bird Island
All Stations in Area
Entire Network
 

Recent Observations

Date/Time Water
Temp (°F)
Sal (psu) pH (pH) Turb (ntu) DO (lb/ft3)
Nov 19 04:00 CST 60.1 28.500 8.25 5 0.000483
Nov 19 03:00 CST 60.3 28.600 8.25 5 0.000486
Nov 19 02:00 CST 60.4 28.600 8.25 9 0.000487
Nov 19 01:00 CST 61.0 28.300 8.26 9 0.000483
Nov 19 00:00 CST 61.2 28.300 8.27 5 0.000488
Nov 18 23:00 CST 61.0 28.600 8.26 6 0.000499
Nov 18 22:00 CST 61.2 28.700 8.26 6 0.000505
Nov 18 21:00 CST 61.7 28.500 8.27 7 0.000507
Nov 18 20:00 CST 61.9 28.500 8.26 7 0.000511
Nov 18 19:00 CST 63.1 28.100 8.27 6 0.000509
Nov 18 18:00 CST 63.1 28.400 8.28 13 0.000524
Nov 18 17:00 CST 63.7 28.400 8.30 16 0.000549
Nov 18 16:00 CST 63.5 28.700 8.31 15 0.000573
Nov 18 15:00 CST 62.6 29.300 8.29 -2 0.000582
Nov 18 14:00 CST 63.9 28.900 8.29 -2 0.000564
Nov 18 13:00 CST 62.8 29.000 8.26 -1 0.000551
Nov 18 12:00 CST 61.5 29.100 8.24 -1 0.000533
Nov 18 11:00 CST 61.7 29.400 8.25 -2 0.000547
Nov 18 10:00 CST 61.2 29.200 8.22 -2 0.000519
Nov 18 09:00 CST 60.8 29.300 8.20 -2 0.000506
Nov 18 08:00 CST 60.4 29.400 8.20 -3 0.000509
Nov 18 07:00 CST 60.3 29.500 8.21 -2 0.000514
Nov 18 06:00 CST 60.3 29.500 8.21 -2 0.000516
Nov 18 05:00 CST 60.3 29.500 8.20 -2 0.000501
Nov 18 04:00 CST 60.3 29.400 8.22 -2 0.000518

Historical Data Availability